Time;durP1;ratioP1;P1;durP2;ratioP2;P2;SDS_P1;SDS_P2;PMS_P1;PMS_P2;Temp;Humidity;BMP_temperature;BMP_pressure;BME280_temperature;BME280_humidity;BME280_pressure;Samples;Min_cycle;Max_cycle;Signal;HPM_P1;HPM_P2
2020/12/25 00:00:48;;;;;;;25.55;12.77;;;307.50;1945.60;;;;;;5058538;28;20017;-73
2020/12/25 00:03:17;;;;;;;22.52;12.05;;;307.50;1945.60;;;;;;5057909;28;20044;-70
2020/12/25 00:05:46;;;;;;;32.63;17.17;;;307.50;1945.60;;;;;;5057956;28;20399;-70
2020/12/25 00:08:13;;;;;;;39.70;19.92;;;307.50;1945.60;;;;;;5055684;28;20045;-71
2020/12/25 00:10:42;;;;;;;40.83;23.05;;;307.50;1945.60;;;;;;5057613;28;20114;-72
2020/12/25 00:13:09;;;;;;;34.08;19.42;;;307.50;1945.60;;;;;;5057695;28;20479;-73
2020/12/25 00:15:35;;;;;;;26.65;15.48;;;307.50;1945.60;;;;;;5058261;28;20024;-73
2020/12/25 00:18:00;;;;;;;28.67;16.80;;;307.50;1945.60;;;;;;5058234;28;20032;-73
2020/12/25 00:20:26;;;;;;;27.25;16.35;;;307.50;1945.60;;;;;;5057897;28;20029;-73
2020/12/25 00:22:52;;;;;;;38.00;20.70;;;307.50;1945.60;;;;;;5056759;28;20425;-71
2020/12/25 00:25:18;;;;;;;35.85;20.23;;;307.50;1945.60;;;;;;5057795;28;20115;-67
2020/12/25 00:27:43;;;;;;;35.35;18.73;;;307.50;1945.60;;;;;;5058144;28;20489;-67
2020/12/25 00:30:09;;;;;;;37.03;19.33;;;307.50;1945.60;;;;;;5058233;28;20028;-71
2020/12/25 00:32:35;;;;;;;34.17;17.67;;;307.50;1945.60;;;;;;5058160;28;20390;-67
2020/12/25 00:35:00;;;;;;;38.25;20.20;;;307.50;1945.60;;;;;;5057125;28;20039;-68
2020/12/25 00:37:26;;;;;;;40.85;22.20;;;307.40;1945.60;;;;;;5054295;28;20063;-68
2020/12/25 00:39:52;;;;;;;28.90;15.95;;;307.40;1945.60;;;;;;5054253;28;20052;-68
2020/12/25 00:42:17;;;;;;;21.23;11.60;;;307.40;1945.60;;;;;;5053918;28;20044;-68
2020/12/25 00:44:43;;;;;;;19.40;10.68;;;307.40;1945.60;;;;;;5056082;28;20427;-68
2020/12/25 00:47:09;;;;;;;18.30;11.13;;;307.40;1920.00;;;;;;5055925;28;20059;-67
2020/12/25 00:49:34;;;;;;;15.40;8.80;;;307.40;1945.60;;;;;;5055608;28;20112;-67
2020/12/25 00:52:00;;;;;;;14.18;8.77;;;307.40;1945.60;;;;;;5054792;28;20033;-67
2020/12/25 00:54:26;;;;;;;19.52;11.13;;;307.30;1945.60;;;;;;5055509;28;20037;-68
2020/12/25 00:56:52;;;;;;;22.95;13.02;;;307.30;1945.60;;;;;;5055443;28;20055;-68
2020/12/25 00:59:17;;;;;;;24.83;14.35;;;307.30;1945.60;;;;;;5055473;28;20025;-69
2020/12/25 01:01:43;;;;;;;21.77;11.88;;;307.40;1945.60;;;;;;5055930;28;20139;-68
2020/12/25 01:04:09;;;;;;;16.02;10.02;;;307.30;1945.60;;;;;;5055179;28;20139;-67
2020/12/25 01:06:34;;;;;;;14.20;8.05;;;307.30;1945.60;;;;;;5055906;28;20094;-68
2020/12/25 01:09:00;;;;;;;13.07;7.65;;;307.30;1945.60;;;;;;5053938;28;20041;-68
2020/12/25 01:11:26;;;;;;;11.38;6.55;;;307.30;1945.60;;;;;;5055626;28;20021;-70
2020/12/25 01:13:52;;;;;;;10.98;7.13;;;307.30;1945.60;;;;;;5055140;28;20555;-71
2020/12/25 01:16:18;;;;;;;13.80;8.57;;;307.30;1945.60;;;;;;5055371;28;20032;-68
2020/12/25 01:18:48;;;;;;;13.18;8.93;;;307.30;1971.20;;;;;;5055204;28;20033;-68
2020/12/25 01:21:14;;;;;;;13.02;7.40;;;307.30;1945.60;;;;;;5055772;28;20021;-73
2020/12/25 01:23:40;;;;;;;11.02;7.22;;;307.30;1971.20;;;;;;5055097;28;20032;-73
2020/12/25 01:26:06;;;;;;;10.77;6.40;;;307.20;1971.20;;;;;;5054921;28;20025;-73
2020/12/25 01:28:33;;;;;;;13.57;7.30;;;307.20;1971.20;;;;;;5055409;28;20028;-72
2020/12/25 01:30:59;;;;;;;12.70;6.82;;;307.20;1971.20;;;;;;5054732;28;20036;-68
2020/12/25 01:33:24;;;;;;;8.68;5.47;;;307.20;1971.20;;;;;;5055030;28;20041;-68
2020/12/25 01:35:50;;;;;;;7.43;5.25;;;307.30;1971.20;;;;;;5054641;28;20524;-72
2020/12/25 01:38:16;;;;;;;8.70;5.55;;;307.20;1971.20;;;;;;5054808;28;20033;-72
2020/12/25 01:40:42;;;;;;;10.73;6.88;;;307.20;1971.20;;;;;;5055353;28;20017;-73
2020/12/25 01:43:07;;;;;;;13.57;7.50;;;307.20;1971.20;;;;;;5054541;28;20083;-73
2020/12/25 01:45:33;;;;;;;15.30;9.55;;;307.20;1971.20;;;;;;5054882;28;20031;-68
2020/12/25 01:48:00;;;;;;;15.45;9.52;;;307.20;1971.20;;;;;;5053880;28;20061;-68
2020/12/25 01:50:27;;;;;;;15.98;8.77;;;307.20;1971.20;;;;;;5054457;28;20439;-68
2020/12/25 01:52:55;;;;;;;15.68;9.32;;;307.20;1971.20;;;;;;5053690;28;20039;-67
2020/12/25 01:55:32;;;;;;;14.68;8.98;;;307.20;1971.20;;;;;;5054257;28;20081;-67
2020/12/25 01:57:59;;;;;;;15.38;9.15;;;307.20;1971.20;;;;;;5054526;28;20043;-68
2020/12/25 02:00:27;;;;;;;14.68;8.77;;;307.20;1971.20;;;;;;5050265;28;20028;-71
2020/12/25 02:02:52;;;;;;;11.98;7.47;;;307.20;1971.20;;;;;;5054559;28;20044;-72
2020/12/25 02:05:18;;;;;;;18.02;9.05;;;307.20;1971.20;;;;;;5054194;28;20036;-67
2020/12/25 02:07:45;;;;;;;32.45;16.20;;;307.20;1971.20;;;;;;5054241;28;20040;-68
2020/12/25 02:10:11;;;;;;;134.07;50.13;;;307.20;1971.20;;;;;;5054759;28;20036;-72
2020/12/25 02:12:38;;;;;;;153.73;63.33;;;307.20;1971.20;;;;;;5053967;28;20091;-70
2020/12/25 02:15:05;;;;;;;110.93;47.03;;;307.20;1971.20;;;;;;5054240;28;20029;-71
2020/12/25 02:17:31;;;;;;;49.42;25.20;;;307.20;1971.20;;;;;;5054249;28;20025;-67
2020/12/25 02:19:57;;;;;;;40.08;20.02;;;307.20;1971.20;;;;;;5054410;28;20055;-67
2020/12/25 02:22:23;;;;;;;33.17;17.50;;;307.20;1971.20;;;;;;5052469;28;20041;-72
2020/12/25 02:24:48;;;;;;;25.45;12.18;;;307.20;1971.20;;;;;;5054151;28;20033;-73
2020/12/25 02:27:14;;;;;;;44.58;16.67;;;282.50;1945.60;;;;;;5052850;28;20110;-69
2020/12/25 02:29:40;;;;;;;31.40;12.45;;;282.50;1945.60;;;;;;5053827;28;20067;-66
2020/12/25 02:32:06;;;;;;;22.02;9.82;;;282.50;1945.60;;;;;;5054446;28;20028;-66
2020/12/25 02:34:31;;;;;;;119.45;39.15;;;282.50;1945.60;;;;;;5054659;28;20025;-66
2020/12/25 02:36:57;;;;;;;153.15;46.03;;;282.50;1945.60;;;;;;5054449;28;20031;-67
2020/12/25 02:39:23;;;;;;;135.93;44.08;;;282.50;1945.60;;;;;;5054309;28;20028;-67
2020/12/25 02:41:48;;;;;;;122.95;46.97;;;282.40;1945.60;;;;;;5054046;28;20053;-67
2020/12/25 02:44:14;;;;;;;90.07;38.63;;;282.40;1945.60;;;;;;5053991;28;20041;-66
2020/12/25 02:46:40;;;;;;;59.00;30.30;;;282.40;1945.60;;;;;;5054072;28;20028;-66
2020/12/25 02:49:05;;;;;;;37.17;20.15;;;282.40;1971.20;;;;;;5053661;28;20025;-66
2020/12/25 02:51:31;;;;;;;16.77;10.93;;;282.40;1945.60;;;;;;5054117;28;20028;-66
2020/12/25 02:53:57;;;;;;;18.10;9.70;;;282.30;1945.60;;;;;;5054060;28;20075;-66
2020/12/25 02:56:22;;;;;;;10.88;6.78;;;282.40;1945.60;;;;;;5053909;28;20021;-66
2020/12/25 02:58:48;;;;;;;8.57;4.95;;;282.30;1945.60;;;;;;5053915;28;20028;-66
2020/12/25 03:01:15;;;;;;;6.97;4.95;;;282.30;1945.60;;;;;;5053724;28;20116;-66
2020/12/25 03:03:42;;;;;;;8.68;4.80;;;282.30;1945.60;;;;;;5053880;28;20032;-66
2020/12/25 03:06:09;;;;;;;7.15;5.05;;;282.30;1971.20;;;;;;5053216;28;20060;-66
2020/12/25 03:08:35;;;;;;;11.38;5.90;;;282.30;1971.20;;;;;;5053711;28;20033;-66
2020/12/25 03:11:01;;;;;;;12.73;7.00;;;282.20;1971.20;;;;;;5053403;28;20027;-66
2020/12/25 03:13:27;;;;;;;12.77;7.38;;;282.20;1971.20;;;;;;5053588;28;20108;-66
2020/12/25 03:15:53;;;;;;;11.95;7.78;;;282.30;1971.20;;;;;;5053937;28;20050;-66
2020/12/25 03:18:19;;;;;;;12.02;8.30;;;282.30;1971.20;;;;;;5053557;28;20025;-66
2020/12/25 03:20:46;;;;;;;12.63;7.40;;;282.20;1971.20;;;;;;5053167;28;20082;-67
2020/12/25 03:23:12;;;;;;;12.98;7.75;;;282.30;1971.20;;;;;;5053538;28;20410;-66
2020/12/25 03:25:38;;;;;;;9.18;6.18;;;282.30;1971.20;;;;;;5053707;28;20018;-67
2020/12/25 03:28:04;;;;;;;13.30;7.03;;;282.30;1971.20;;;;;;5053395;28;20158;-67
2020/12/25 03:30:30;;;;;;;19.23;10.32;;;282.30;1971.20;;;;;;5053808;28;20051;-66
2020/12/25 03:32:56;;;;;;;16.40;8.75;;;282.20;1971.20;;;;;;5033531;28;20100;-66
2020/12/25 03:35:22;;;;;;;10.50;6.65;;;282.30;1971.20;;;;;;5033756;28;20485;-66
2020/12/25 03:37:47;;;;;;;9.63;5.65;;;282.20;1971.20;;;;;;5033700;28;20022;-66
2020/12/25 03:40:13;;;;;;;8.48;6.00;;;282.20;1971.20;;;;;;5033653;28;20110;-67
2020/12/25 03:42:39;;;;;;;11.60;5.05;;;282.20;1971.20;;;;;;5033423;28;20043;-66
2020/12/25 03:45:05;;;;;;;7.63;4.60;;;282.10;1971.20;;;;;;5033452;28;20390;-66
2020/12/25 03:47:31;;;;;;;7.72;4.35;;;282.10;1971.20;;;;;;5033319;28;20029;-67
2020/12/25 03:49:57;;;;;;;6.72;4.32;;;282.10;1971.20;;;;;;5033713;28;20113;-67
2020/12/25 03:52:23;;;;;;;8.07;4.20;;;282.10;1971.20;;;;;;5044194;28;20104;-66
2020/12/25 03:54:49;;;;;;;7.68;4.05;;;282.10;1971.20;;;;;;5053434;28;20017;-68
2020/12/25 03:57:14;;;;;;;8.88;4.22;;;282.10;1971.20;;;;;;5053235;28;20033;-67
2020/12/25 03:59:40;;;;;;;8.18;4.18;;;282.10;1971.20;;;;;;5053338;28;20378;-67
2020/12/25 04:02:06;;;;;;;6.05;3.38;;;282.00;1971.20;;;;;;5053391;28;20037;-67
2020/12/25 04:04:32;;;;;;;5.35;3.22;;;282.00;1996.80;;;;;;5053081;28;20547;-67
2020/12/25 04:06:58;;;;;;;7.75;3.63;;;282.00;1971.20;;;;;;5053203;28;20025;-67
2020/12/25 04:09:23;;;;;;;5.97;3.70;;;282.00;1996.80;;;;;;5053384;28;20033;-67
2020/12/25 04:11:49;;;;;;;7.07;4.38;;;282.00;1996.80;;;;;;5054468;28;20029;-67
2020/12/25 04:14:18;;;;;;;7.53;4.70;;;282.00;1996.80;;;;;;5056769;28;20021;-67
2020/12/25 04:16:44;;;;;;;10.43;6.32;;;282.00;1996.80;;;;;;5057486;28;20120;-67
2020/12/25 04:19:10;;;;;;;11.23;6.82;;;282.00;1996.80;;;;;;5057504;28;20458;-67
2020/12/25 04:21:40;;;;;;;13.45;7.78;;;282.00;1971.20;;;;;;5056979;28;20052;-67
2020/12/25 04:24:06;;;;;;;17.45;7.45;;;282.00;1971.20;;;;;;5056765;28;20112;-67
2020/12/25 04:26:31;;;;;;;13.73;6.35;;;282.00;1971.20;;;;;;5056779;28;20208;-65
2020/12/25 04:28:57;;;;;;;11.65;6.35;;;282.00;1971.20;;;;;;5056615;28;20047;-66
2020/12/25 04:31:27;;;;;;;9.55;4.95;;;282.00;1996.80;;;;;;5056761;28;20017;-68
2020/12/25 04:33:54;;;;;;;6.75;4.55;;;282.00;1996.80;;;;;;5056707;28;20017;-68
2020/12/25 04:36:20;;;;;;;6.78;4.65;;;282.00;1996.80;;;;;;5056720;28;20027;-68
2020/12/25 04:38:46;;;;;;;9.27;5.13;;;282.00;1996.80;;;;;;5056544;28;20025;-68
2020/12/25 04:41:12;;;;;;;8.25;5.13;;;282.00;1996.80;;;;;;5056399;28;20521;-66
2020/12/25 04:43:40;;;;;;;10.13;5.75;;;282.00;1996.80;;;;;;5056125;28;20064;-66
2020/12/25 04:46:07;;;;;;;8.95;5.93;;;282.00;1996.80;;;;;;5056592;28;20025;-65
2020/12/25 04:48:35;;;;;;;13.80;5.63;;;282.00;1996.80;;;;;;5056435;28;20107;-65
2020/12/25 04:51:02;;;;;;;8.43;5.07;;;282.00;1996.80;;;;;;5056389;28;20017;-66
2020/12/25 04:53:28;;;;;;;8.75;5.38;;;282.00;1996.80;;;;;;5056280;28;20088;-65
2020/12/25 04:55:53;;;;;;;10.23;5.43;;;281.90;1971.20;;;;;;5056277;28;20025;-67
2020/12/25 04:58:19;;;;;;;7.88;4.93;;;281.90;1971.20;;;;;;5056263;28;20032;-67
2020/12/25 05:01:04;;;;;;;10.45;5.63;;;281.90;1996.80;;;;;;5055974;28;20490;-67
2020/12/25 05:03:38;;;;;;;8.43;4.82;;;281.90;1996.80;;;;;;5056026;28;20033;-67
2020/12/25 05:06:15;;;;;;;7.43;4.55;;;281.80;1996.80;;;;;;5055933;28;20091;-67
2020/12/25 05:08:51;;;;;;;9.90;5.78;;;281.80;1996.80;;;;;;5055801;28;20498;-67
2020/12/25 05:11:21;;;;;;;8.90;5.70;;;281.80;1996.80;;;;;;5055899;28;20052;-67
2020/12/25 05:13:54;;;;;;;12.57;7.25;;;281.80;1996.80;;;;;;5055315;28;20064;-67
2020/12/25 05:16:22;;;;;;;10.98;5.35;;;281.80;1996.80;;;;;;5055964;28;20074;-67
2020/12/25 05:18:49;;;;;;;8.60;5.15;;;281.80;1996.80;;;;;;5055606;28;20025;-67
2020/12/25 05:21:17;;;;;;;8.00;5.50;;;281.80;1996.80;;;;;;5053106;28;20025;-69
2020/12/25 05:23:44;;;;;;;10.98;6.25;;;281.80;1996.80;;;;;;5051220;28;20502;-70
2020/12/25 05:26:11;;;;;;;13.20;7.68;;;281.80;1996.80;;;;;;5052545;28;20021;-67
2020/12/25 05:28:49;;;;;;;12.95;7.90;;;281.80;1996.80;;;;;;5054184;28;20078;-66
2020/12/25 05:31:15;;;;;;;14.63;8.32;;;281.80;1996.80;;;;;;5052807;28;20115;-66
2020/12/25 05:33:41;;;;;;;16.30;8.45;;;281.80;1996.80;;;;;;5053243;28;20033;-68
2020/12/25 05:36:13;;;;;;;18.77;9.48;;;281.80;2022.40;;;;;;5053786;28;20028;-69
2020/12/25 05:38:41;;;;;;;15.80;8.70;;;281.80;1996.80;;;;;;5054134;28;20021;-67
2020/12/25 05:41:07;;;;;;;16.95;8.02;;;281.80;2022.40;;;;;;5053800;28;20021;-69
2020/12/25 05:43:34;;;;;;;17.90;10.30;;;281.80;2022.40;;;;;;5053788;28;20044;-66
2020/12/25 05:46:00;;;;;;;16.58;10.70;;;281.80;1996.80;;;;;;5053884;28;20032;-65
2020/12/25 05:48:26;;;;;;;20.02;10.90;;;281.80;1996.80;;;;;;5053864;28;20037;-66
2020/12/25 05:50:52;;;;;;;18.40;12.02;;;281.80;1996.80;;;;;;5053829;28;20017;-66
2020/12/25 05:53:21;;;;;;;21.42;12.32;;;281.80;1996.80;;;;;;5053133;28;20083;-66
2020/12/25 05:55:47;;;;;;;24.00;12.88;;;281.80;1996.80;;;;;;5053720;28;20021;-67
2020/12/25 05:58:14;;;;;;;16.67;11.43;;;281.80;1996.80;;;;;;5053085;28;20478;-67
2020/12/25 06:00:42;;;;;;;16.65;9.27;;;281.80;1996.80;;;;;;5051078;28;20048;-68
2020/12/25 06:03:12;;;;;;;14.95;8.32;;;281.80;1996.80;;;;;;5053027;28;20033;-67
2020/12/25 06:05:41;;;;;;;13.70;8.77;;;281.80;1996.80;;;;;;5052712;28;20041;-67
2020/12/25 06:08:49;;;;;;;14.07;9.45;;;281.80;1996.80;;;;;;5052760;28;20049;-68
2020/12/25 06:11:16;;;;;;;15.50;8.57;;;281.80;1996.80;;;;;;5051835;28;20051;-68
2020/12/25 06:13:42;;;;;;;16.85;10.18;;;281.80;1996.80;;;;;;5051469;28;20052;-69
2020/12/25 06:16:13;;;;;;;17.35;10.57;;;281.80;1996.80;;;;;;5051567;28;20123;-67
2020/12/25 06:19:07;;;;;;;16.80;11.23;;;281.80;1996.80;;;;;;5052686;28;20057;-67
2020/12/25 06:21:54;;;;;;;26.23;14.82;;;281.80;1996.80;;;;;;5051680;28;20166;-68
2020/12/25 06:24:22;;;;;;;33.10;19.10;;;281.80;1996.80;;;;;;5052721;28;20112;-68
2020/12/25 06:26:53;;;;;;;37.00;20.10;;;281.80;1996.80;;;;;;5053093;28;20020;-67
2020/12/25 06:29:20;;;;;;;42.63;24.52;;;281.80;1996.80;;;;;;5052472;28;20062;-67
2020/12/25 06:31:48;;;;;;;54.75;29.05;;;281.80;1996.80;;;;;;5052743;28;20108;-67
2020/12/25 06:34:15;;;;;;;53.10;28.73;;;281.80;1996.80;;;;;;5051966;28;20394;-67
2020/12/25 06:36:49;;;;;;;66.97;38.05;;;281.90;1971.20;;;;;;5052635;28;20039;-68
2020/12/25 06:39:16;;;;;;;;;;;281.90;1996.80;;;;;;5052597;28;20031;-66
2020/12/25 06:41:42;;;;;;;48.47;30.10;;;281.90;1996.80;;;;;;5052217;28;19909;-67
2020/12/25 06:44:09;;;;;;;39.33;24.75;;;281.80;1996.80;;;;;;5051120;28;20090;-67
2020/12/25 06:46:35;;;;;;;43.38;24.88;;;281.80;1996.80;;;;;;5052407;28;20112;-67
2020/12/25 06:49:08;;;;;;;31.88;21.58;;;281.90;1996.80;;;;;;5049634;28;20025;-71
2020/12/25 06:51:45;;;;;;;30.63;19.92;;;281.90;1996.80;;;;;;5054230;28;20020;-71
2020/12/25 06:54:26;;;;;;;23.08;11.52;;;281.90;1996.80;;;;;;5052539;28;20036;-70
2020/12/25 06:56:52;;;;;;;26.30;15.35;;;282.10;2150.40;;;;;;5053896;28;20032;-68
2020/12/25 06:59:19;;;;;;;28.15;16.70;;;282.20;2048.00;;;;;;5054071;28;20044;-68
2020/12/25 07:01:47;;;;;;;29.77;18.55;;;282.20;1996.80;;;;;;5053704;28;20474;-68
2020/12/25 07:04:23;;;;;;;33.60;20.40;;;282.10;1996.80;;;;;;5053794;28;20103;-66
2020/12/25 07:06:55;;;;;;;31.10;20.80;;;282.10;1971.20;;;;;;5053554;28;20366;-72
2020/12/25 07:09:21;;;;;;;27.65;17.92;;;282.10;1971.20;;;;;;5053978;28;20429;-69
2020/12/25 07:11:53;;;;;;;22.02;14.20;;;282.10;1971.20;;;;;;5053721;28;20021;-66
2020/12/25 07:14:19;;;;;;;25.08;14.80;;;282.00;1971.20;;;;;;5053407;28;20025;-66
2020/12/25 07:16:45;;;;;;;24.38;15.25;;;282.00;1971.20;;;;;;5053667;28;20347;-66
2020/12/25 07:19:11;;;;;;;28.05;17.05;;;282.00;1971.20;;;;;;5053794;28;20021;-66
2020/12/25 07:21:38;;;;;;;24.60;16.80;;;282.00;1971.20;;;;;;5053869;28;20032;-66
2020/12/25 07:24:03;;;;;;;31.30;17.40;;;282.00;1971.20;;;;;;5053527;28;20482;-65
2020/12/25 07:26:29;;;;;;;30.45;19.20;;;282.10;1971.20;;;;;;5052383;28;20036;-66
2020/12/25 07:28:57;;;;;;;35.10;20.38;;;282.00;1971.20;;;;;;5053696;28;20049;-66
2020/12/25 07:31:23;;;;;;;35.95;22.90;;;282.00;1971.20;;;;;;5053729;28;20024;-66
2020/12/25 07:33:57;;;;;;;43.95;25.02;;;282.00;1971.20;;;;;;5053620;28;20029;-66
2020/12/25 07:36:24;;;;;;;45.80;26.80;;;282.00;1971.20;;;;;;5053736;28;20021;-66
2020/12/25 07:39:00;;;;;;;44.70;27.40;;;282.00;1971.20;;;;;;5053656;28;20033;-66
2020/12/25 07:41:26;;;;;;;51.85;29.55;;;282.10;1971.20;;;;;;5053511;28;20028;-66
2020/12/25 07:43:57;;;;;;;46.00;29.20;;;282.10;1971.20;;;;;;5053385;28;20039;-68
2020/12/25 07:46:26;;;;;;;43.33;26.50;;;282.10;1971.20;;;;;;5055757;28;20464;-65
2020/12/25 07:48:59;;;;;;;47.20;29.13;;;282.10;1971.20;;;;;;5057711;28;20025;-65
2020/12/25 07:51:25;;;;;;;46.75;28.17;;;282.10;1971.20;;;;;;5057564;28;20053;-65
2020/12/25 07:53:54;;;;;;;71.22;41.70;;;282.10;1971.20;;;;;;5057483;28;20075;-65
2020/12/25 07:56:22;;;;;;;84.32;48.72;;;282.10;1971.20;;;;;;5057352;28;20048;-65
2020/12/25 07:58:49;;;;;;;89.25;51.60;;;282.10;1971.20;;;;;;5057524;28;20108;-65
2020/12/25 08:01:19;;;;;;;94.90;51.90;;;282.10;1971.20;;;;;;5054794;28;20090;-65
2020/12/25 08:03:45;;;;;;;134.85;76.65;;;282.10;1971.20;;;;;;5054529;28;20080;-66
2020/12/25 08:06:14;;;;;;;160.43;92.57;;;282.10;1971.20;;;;;;5056119;28;20057;-66
2020/12/25 08:08:44;;;;;;;155.30;92.45;;;282.10;1971.20;;;;;;5057116;28;20020;-67
2020/12/25 08:11:11;;;;;;;109.65;69.22;;;282.10;1971.20;;;;;;5056496;28;20017;-67
2020/12/25 08:13:37;;;;;;;96.53;60.40;;;282.10;1971.20;;;;;;5056689;28;20021;-66
2020/12/25 08:16:05;;;;;;;93.45;57.55;;;282.10;1971.20;;;;;;5056523;28;20025;-66
2020/12/25 08:18:30;;;;;;;85.28;50.80;;;282.10;1971.20;;;;;;5056836;28;20415;-66
2020/12/25 08:20:57;;;;;;;59.50;39.03;;;282.10;1971.20;;;;;;5056824;28;20108;-66
2020/12/25 08:23:23;;;;;;;56.08;31.63;;;282.10;1971.20;;;;;;5056836;28;20044;-66
2020/12/25 08:25:55;;;;;;;65.00;41.58;;;282.10;1971.20;;;;;;5057063;28;20021;-66
2020/12/25 08:28:22;;;;;;;61.45;39.42;;;282.10;1971.20;;;;;;5056592;28;20056;-70
2020/12/25 08:30:49;;;;;;;123.13;84.75;;;282.10;1971.20;;;;;;5056952;28;20021;-70
2020/12/25 08:33:26;;;;;;;97.43;63.67;;;282.10;1971.20;;;;;;5056805;28;20126;-66
2020/12/25 08:35:52;;;;;;;112.63;62.58;;;282.10;1971.20;;;;;;5056680;28;20017;-66
2020/12/25 08:38:18;;;;;;;118.90;61.85;;;282.10;1971.20;;;;;;5056864;28;20363;-66
2020/12/25 08:40:46;;;;;;;105.43;49.92;;;282.10;1971.20;;;;;;5056574;28;20400;-66
2020/12/25 08:43:17;;;;;;;84.35;39.97;;;282.10;1971.20;;;;;;5056168;28;20037;-69
2020/12/25 08:45:59;;;;;;;65.13;35.53;;;282.10;1996.80;;;;;;5056561;28;20029;-68
2020/12/25 08:48:26;;;;;;;65.15;34.05;;;282.10;1971.20;;;;;;5056102;28;20490;-68
2020/12/25 08:51:08;;;;;;;79.88;42.10;;;282.10;1996.80;;;;;;5056489;28;20383;-68
2020/12/25 08:53:35;;;;;;;88.72;47.88;;;282.20;1971.20;;;;;;5056116;28;20059;-68
2020/12/25 08:56:14;;;;;;;86.88;44.75;;;282.20;1996.80;;;;;;5056242;28;20021;-66
2020/12/25 08:58:40;;;;;;;82.57;43.05;;;282.20;1971.20;;;;;;5055330;28;20029;-66
2020/12/25 09:01:06;;;;;;;84.07;42.38;;;282.20;1971.20;;;;;;5056118;28;20108;-67
2020/12/25 09:03:42;;;;;;;82.72;45.22;;;282.20;1971.20;;;;;;5055110;28;20048;-66
2020/12/25 09:06:09;;;;;;;78.88;43.85;;;282.20;1971.20;;;;;;5056149;28;20044;-67
2020/12/25 09:08:36;;;;;;;113.38;68.60;;;282.30;1971.20;;;;;;5055904;28;20471;-66
2020/12/25 09:11:06;;;;;;;178.70;115.90;;;282.30;1971.20;;;;;;5055940;28;20033;-66
2020/12/25 09:13:32;;;;;;;126.88;83.97;;;282.30;1971.20;;;;;;5046238;28;20064;-65
2020/12/25 09:15:57;;;;;;;86.60;55.47;;;282.20;1996.80;;;;;;5037441;28;20049;-63
2020/12/25 09:18:23;;;;;;;57.58;38.88;;;282.30;1996.80;;;;;;5043316;28;20036;-66
2020/12/25 09:20:49;;;;;;;42.40;28.13;;;282.30;1996.80;;;;;;5042661;28;20027;-65
2020/12/25 09:23:14;;;;;;;39.92;28.42;;;282.20;1996.80;;;;;;5043986;28;20072;-65
2020/12/25 09:25:40;;;;;;;41.45;26.63;;;282.30;1996.80;;;;;;5040265;28;20026;-66
2020/12/25 09:28:06;;;;;;;27.20;20.77;;;282.30;1996.80;;;;;;5038984;28;20029;-65
2020/12/25 09:30:37;;;;;;;25.10;17.70;;;282.30;1971.20;;;;;;5040084;28;20029;-64
2020/12/25 09:33:03;;;;;;;22.35;15.25;;;282.30;1971.20;;;;;;5038463;28;20022;-67
2020/12/25 09:35:29;;;;;;;21.70;14.63;;;282.30;1971.20;;;;;;5035687;28;20431;-66
2020/12/25 09:37:55;;;;;;;22.88;15.82;;;282.30;1971.20;;;;;;5040043;28;20029;-67
2020/12/25 09:40:20;;;;;;;28.00;18.73;;;282.30;1971.20;;;;;;5049051;28;20052;-66
2020/12/25 09:42:46;;;;;;;46.20;22.35;;;282.30;1971.20;;;;;;5050802;28;20029;-64
2020/12/25 09:45:12;;;;;;;51.33;28.58;;;282.40;1971.20;;;;;;5043862;28;20039;-65
2020/12/25 09:47:38;;;;;;;47.83;26.45;;;282.40;1971.20;;;;;;5055324;28;20458;-65
2020/12/25 09:50:04;;;;;;;46.50;26.02;;;282.30;1996.80;;;;;;5042507;28;20033;-66
2020/12/25 09:52:29;;;;;;;49.38;28.77;;;282.40;1996.80;;;;;;5048640;28;20490;-65
2020/12/25 09:54:55;;;;;;;51.10;28.30;;;282.40;1996.80;;;;;;5044599;28;20075;-66
2020/12/25 09:57:22;;;;;;;46.38;27.88;;;282.50;1971.20;;;;;;5042358;28;20021;-65
2020/12/25 09:59:48;;;;;;;43.40;27.10;;;282.50;1971.20;;;;;;5051514;28;20108;-65
2020/12/25 10:02:14;;;;;;;54.55;31.80;;;282.50;1971.20;;;;;;5035963;28;20605;-65
2020/12/25 10:04:39;;;;;;;60.97;42.05;;;282.50;1971.20;;;;;;5046877;28;20064;-65
2020/12/25 10:07:05;;;;;;;76.90;48.88;;;282.50;1971.20;;;;;;5048087;28;20025;-69
2020/12/25 10:09:31;;;;;;;81.60;52.05;;;282.50;1971.20;;;;;;5042103;28;20502;-65
2020/12/25 10:11:57;;;;;;;96.03;53.65;;;282.50;1971.20;;;;;;5036880;28;20025;-66
2020/12/25 10:14:23;;;;;;;86.07;50.47;;;282.50;1971.20;;;;;;5044693;28;20040;-65
2020/12/25 10:16:48;;;;;;;72.85;42.58;;;282.50;1971.20;;;;;;5043340;28;20421;-66
2020/12/25 10:19:14;;;;;;;72.85;40.47;;;282.40;1971.20;;;;;;5039745;28;20071;-66
2020/12/25 10:21:40;;;;;;;86.13;46.92;;;282.40;1971.20;;;;;;5035028;28;20025;-65
2020/12/25 10:24:06;;;;;;;64.57;35.67;;;282.40;1971.20;;;;;;5033072;28;20044;-65
2020/12/25 10:26:32;;;;;;;45.75;27.77;;;282.30;1971.20;;;;;;5032999;28;20021;-65
2020/12/25 10:28:58;;;;;;;44.10;25.75;;;282.30;1971.20;;;;;;5033006;28;20053;-65
2020/12/25 10:31:23;;;;;;;32.42;21.02;;;282.30;1996.80;;;;;;5035046;28;20033;-65
2020/12/25 10:33:49;;;;;;;33.60;21.42;;;282.30;1996.80;;;;;;5034376;28;20485;-65
2020/12/25 10:36:15;;;;;;;33.17;21.80;;;282.30;1971.20;;;;;;5034990;28;20029;-64
2020/12/25 10:38:41;;;;;;;40.70;27.20;;;282.30;1996.80;;;;;;5043783;28;20025;-65
2020/12/25 10:41:08;;;;;;;30.08;19.88;;;282.30;1996.80;;;;;;5054101;28;20455;-67
2020/12/25 10:43:35;;;;;;;25.20;17.23;;;282.30;1996.80;;;;;;5043935;28;20045;-65
2020/12/25 10:46:01;;;;;;;26.45;16.45;;;282.30;1996.80;;;;;;5038661;28;20021;-65
2020/12/25 10:48:26;;;;;;;23.63;16.27;;;282.30;1996.80;;;;;;5034179;28;20037;-66
2020/12/25 10:50:52;;;;;;;29.05;17.35;;;282.30;1996.80;;;;;;5034070;28;20033;-67
2020/12/25 10:53:18;;;;;;;24.42;15.88;;;282.30;1996.80;;;;;;5033923;28;20021;-66
2020/12/25 10:55:43;;;;;;;24.35;15.32;;;282.30;1996.80;;;;;;5035824;28;20025;-66
2020/12/25 10:58:09;;;;;;;21.33;14.75;;;282.30;1996.80;;;;;;5033529;28;20311;-67
2020/12/25 11:00:35;;;;;;;21.05;14.57;;;282.30;1996.80;;;;;;5036327;28;20025;-67
2020/12/25 11:03:00;;;;;;;20.63;14.23;;;282.30;1996.80;;;;;;5034785;28;20025;-73
2020/12/25 11:05:26;;;;;;;23.45;16.27;;;282.30;1996.80;;;;;;5050280;28;20053;-68
2020/12/25 11:07:54;;;;;;;32.85;20.00;;;282.30;1996.80;;;;;;5051749;28;20025;-68
2020/12/25 11:10:20;;;;;;;31.80;23.67;;;282.30;1971.20;;;;;;5053172;28;20075;-67
2020/12/25 11:12:45;;;;;;;36.53;23.80;;;282.30;1996.80;;;;;;5052860;28;20371;-65
2020/12/25 11:15:11;;;;;;;38.13;24.95;;;282.30;1971.20;;;;;;5052385;28;20021;-66
2020/12/25 11:17:37;;;;;;;34.90;24.13;;;282.30;1996.80;;;;;;5052277;28;20540;-66
2020/12/25 11:20:02;;;;;;;42.22;26.33;;;282.30;1996.80;;;;;;5050682;28;20053;-66
2020/12/25 11:22:28;;;;;;;37.72;23.73;;;282.30;1996.80;;;;;;5052314;28;20021;-67
2020/12/25 11:24:54;;;;;;;31.10;21.60;;;282.30;1996.80;;;;;;5052188;28;20028;-66
2020/12/25 11:27:20;;;;;;;41.95;28.35;;;282.30;1996.80;;;;;;5051057;28;20049;-66
2020/12/25 11:29:45;;;;;;;54.53;33.90;;;282.30;1996.80;;;;;;5051572;28;20112;-67
2020/12/25 11:32:11;;;;;;;63.17;35.88;;;282.30;1996.80;;;;;;5050341;28;20031;-67
2020/12/25 11:34:36;;;;;;;70.93;42.83;;;282.30;1996.80;;;;;;5052711;28;20078;-67
2020/12/25 11:37:02;;;;;;;70.10;40.67;;;282.30;1996.80;;;;;;5052150;28;20398;-67
2020/12/25 11:39:28;;;;;;;84.10;45.35;;;282.30;1996.80;;;;;;5050692;28;20029;-67
2020/12/25 11:41:54;;;;;;;91.07;49.70;;;282.30;1996.80;;;;;;5050060;28;20104;-68
2020/12/25 11:44:20;;;;;;;123.15;61.05;;;282.30;1996.80;;;;;;5050915;28;20486;-68
2020/12/25 11:46:46;;;;;;;117.05;60.05;;;282.30;1996.80;;;;;;5053297;28;20032;-67
2020/12/25 11:49:11;;;;;;;90.18;49.67;;;282.30;2022.40;;;;;;5052941;28;20029;-68
2020/12/25 11:51:37;;;;;;;78.38;45.42;;;282.30;1996.80;;;;;;5052681;28;20029;-67
2020/12/25 11:54:03;;;;;;;73.95;41.20;;;282.30;1996.80;;;;;;5052930;28;20036;-65
2020/12/25 11:56:30;;;;;;;59.70;36.20;;;282.30;1996.80;;;;;;5052850;28;20087;-65
2020/12/25 11:59:00;;;;;;;49.65;31.63;;;282.30;1996.80;;;;;;5053269;28;20027;-65
2020/12/25 12:01:26;;;;;;;47.17;28.00;;;282.30;1996.80;;;;;;5053253;28;20067;-65
2020/12/25 12:03:52;;;;;;;49.20;29.67;;;282.30;1996.80;;;;;;5053084;28;20033;-65